女満別空港の過去48時間の天気

女満別空港 (Memanbetsu)

現在時刻: 10/20 03:39 JST (10/19 18:39 UTC) 以下の時間は現地時間です。

過去48時間のMETAR気象情報
時間 風向 風速(m/s) 視程 気温(℃) 湿度(%) 気圧(hPa) 天気現象
19 20:00 4 10km以上 4 87 1019
19 19:00 不定 1 10km以上 6 81 1019
19 18:00 不定 1 10km以上 8 76 1019
19 17:00 東南東 2 10km以上 10 62 1019
19 16:00 3 10km以上 12 54 1019
19 15:00 4 10km以上 13 51 1019
19 14:00 不定 1 10km以上 14 41 1019
19 13:00 不定 1 10km以上 14 41 1019
19 12:00 西北西 2 10km以上 13 41 1020
19 11:00 不定 1 10km以上 13 47 1021
19 10:00 西南西 2 10km以上 11 58 1021
19 09:00 南西 2 10km以上 8 66 1022
19 08:00 南南西 3 10km以上 5 75 1022
19 07:45 南南西 5 10km以上 4 75 1022
18 20:00 3 10km以上 3 87 1019
18 19:00 南西 2 10km以上 7 81 1019
18 18:00 南南東 3 10km以上 6 81 1018
18 17:00 南東 3 10km以上 8 76 1017 周辺でしゅう雨
18 16:00 北北東 3 10km以上 10 66 1016
18 15:00 4 10km以上 11 62 1016
18 14:00 5 10km以上 9 76 1015 弱いしゅう雨
18 13:00 北西 2 10km以上 12 54 1015
18 12:00 北北西 3 10km以上 10 71 1015 弱いしゅう雨
18 11:00 不定 1 10km以上 10 71 1015 弱いしゅう雨
18 10:00 3 10km以上 8 76 1015
18 09:00 南南西 3 10km以上 6 81 1014
18 08:00 南南西 4 10km以上 5 81 1014
18 07:45 南南西 3 10km以上 5 81 1014
RJCM 191100Z 18007KT 9999 FEW030 04/02 Q1019
RJCM 191000Z VRB01KT 9999 FEW030 06/03 Q1019
RJCM 190900Z VRB01KT 9999 FEW030 08/04 Q1019
RJCM 190800Z 11004KT 9999 FEW030 10/03 Q1019
RJCM 190700Z 09006KT 9999 FEW040 12/03 Q1019
RJCM 190600Z 08008KT 050V120 9999 FEW040 13/03 Q1019
RJCM 190500Z VRB02KT 9999 FEW040 14/01 Q1019
RJCM 190400Z VRB02KT 9999 FEW030 14/01 Q1019
RJCM 190300Z 30003KT 230V360 9999 FEW030 13/00 Q1020
RJCM 190200Z VRB02KT 9999 FEW030 13/02 Q1021
RJCM 190100Z 24004KT 200V280 9999 FEW020 11/03 Q1021
RJCM 190000Z 23003KT 190V280 9999 FEW015 08/02 Q1022
RJCM 182300Z 21005KT 9999 FEW015 05/01 Q1022
RJCM 182245Z 21009KT 9999 FEW015 04/00 Q1022 RMK 1ST015 A3020
RJCM 181100Z 18005KT 9999 FEW020 03/01 Q1019
RJCM 181000Z 22003KT 9999 FEW020 07/04 Q1019
RJCM 180900Z 16005KT 9999 FEW020 SCT060 06/03 Q1018
RJCM 180800Z 13005KT 9999 VCSH FEW020 SCT060 08/04 Q1017
RJCM 180700Z 02006KT 9999 FEW020 SCT060 BKN070 10/04 Q1016
RJCM 180600Z 35008KT 320V020 9999 FEW020 SCT050 BKN070 11/04 Q1016
RJCM 180500Z 35010KT 9999 -SHRA FEW020 SCT035 BKN060 09/05 Q1015
RJCM 180400Z 32004KT 210V360 9999 FEW020 SCT040 12/03 Q1015
RJCM 180300Z 33005KT 280V010 9999 -SHRA FEW010 SCT030 BKN040 10/05 Q1015
RJCM 180200Z VRB02KT 9999 -SHRA FEW020 SCT030 BKN050 10/05 Q1015
RJCM 180100Z 18005KT 9999 FEW030 SCT040 BKN070 08/04 Q1015
RJCM 180000Z 20006KT 9999 FEW020 SCT045 BKN060 06/03 Q1014
RJCM 172300Z 20007KT 9999 FEW015 SCT050 BKN070 05/02 Q1014
RJCM 172245Z 21006KT 9999 FEW010 SCT050 BKN070 05/02 Q1014 RMK 1ST010 3CU050 5AC070 A2996